WZZ4D1 LATI-BKPR
Flight info
| Callsign | WZZ4D1 |
|---|---|
| Flight time | 0h 24m |
| Altitude | 17000 |
| Route | ODRAS DCT XAXAN |
| Aircraft | A20N/M-V/N |
Departure
| Time | 2026-04-30 14:14 |
|---|---|
| Airport | Tirana International Airport Mother Teresa (LATI) |
Arrival
| Time | 2026-04-30 14:38 |
|---|---|
| Airport | Priština Adem Jashari International Airport (BKPR) |
| Time | Latitude | Longitude | Altitude | Speed | Heading |
|---|---|---|---|---|---|
| 2026-04-30 14:08 | 41.42294 | 19.71540 | 111 ft | 0 kts | 174° |
| 2026-04-30 14:09 | 41.42254 | 19.71546 | 112 ft | 7 kts | 174° |
| 2026-04-30 14:10 | 41.42158 | 19.71558 | 113 ft | 19 kts | 175° |
| 2026-04-30 14:10 | 41.41984 | 19.71573 | 114 ft | 28 kts | 176° |
| 2026-04-30 14:10 | 41.41798 | 19.71606 | 117 ft | 25 kts | 179° |
| 2026-04-30 14:10 | 41.41622 | 19.71625 | 118 ft | 24 kts | 175° |
| 2026-04-30 14:11 | 41.41463 | 19.71646 | 120 ft | 22 kts | 175° |
| 2026-04-30 14:11 | 41.41305 | 19.71665 | 121 ft | 23 kts | 175° |
| 2026-04-30 14:11 | 41.41134 | 19.71689 | 123 ft | 26 kts | 173° |
| 2026-04-30 14:11 | 41.40934 | 19.71720 | 123 ft | 29 kts | 171° |
| 2026-04-30 14:12 | 41.40736 | 19.71765 | 123 ft | 27 kts | 171° |
| 2026-04-30 14:12 | 41.40551 | 19.71786 | 125 ft | 25 kts | 175° |
| 2026-04-30 14:12 | 41.40396 | 19.71822 | 126 ft | 21 kts | 150° |
| 2026-04-30 14:12 | 41.40279 | 19.71934 | 128 ft | 20 kts | 141° |
| 2026-04-30 14:13 | 41.40248 | 19.72100 | 128 ft | 19 kts | 85° |
| 2026-04-30 14:13 | 41.40301 | 19.72206 | 130 ft | 15 kts | 359° |
| 2026-04-30 14:13 | 41.40418 | 19.72192 | 128 ft | 26 kts | 354° |
| 2026-04-30 14:13 | 41.40880 | 19.72133 | 126 ft | 103 kts | 353° |
| 2026-04-30 14:14 | 41.41816 | 19.72011 | 151 ft | 160 kts | 353° |
| 2026-04-30 14:14 | 41.42927 | 19.71851 | 803 ft | 162 kts | 353° |
| 2026-04-30 14:14 | 41.44030 | 19.71660 | 1574 ft | 163 kts | 355° |
| 2026-04-30 14:14 | 41.45153 | 19.71517 | 2292 ft | 164 kts | 359° |
| 2026-04-30 14:15 | 41.46305 | 19.71389 | 2757 ft | 171 kts | 357° |
| 2026-04-30 14:15 | 41.47498 | 19.71209 | 3398 ft | 176 kts | 357° |
| 2026-04-30 14:15 | 41.48758 | 19.71050 | 3889 ft | 191 kts | 357° |
| 2026-04-30 14:15 | 41.50132 | 19.71154 | 4304 ft | 210 kts | 23° |
| 2026-04-30 14:16 | 41.51252 | 19.72484 | 4749 ft | 232 kts | 63° |
| 2026-04-30 14:16 | 41.51614 | 19.74682 | 5334 ft | 252 kts | 83° |
| 2026-04-30 14:16 | 41.51713 | 19.77066 | 6036 ft | 265 kts | 83° |
| 2026-04-30 14:16 | 41.51844 | 19.79529 | 6897 ft | 271 kts | 81° |
| 2026-04-30 14:17 | 41.52038 | 19.82031 | 7784 ft | 276 kts | 80° |
| 2026-04-30 14:17 | 41.52280 | 19.84593 | 8629 ft | 283 kts | 79° |
| 2026-04-30 14:17 | 41.52554 | 19.87206 | 9421 ft | 290 kts | 79° |
| 2026-04-30 14:17 | 41.52845 | 19.89861 | 10247 ft | 297 kts | 79° |
| 2026-04-30 14:18 | 41.53159 | 19.92649 | 10845 ft | 312 kts | 79° |
| 2026-04-30 14:18 | 41.53491 | 19.95578 | 11336 ft | 329 kts | 79° |
| 2026-04-30 14:18 | 41.54219 | 20.01943 | 12182 ft | 366 kts | 79° |
| 2026-04-30 14:19 | 41.55016 | 20.08989 | 12849 ft | 401 kts | 79° |
| 2026-04-30 14:19 | 41.55445 | 20.12720 | 13145 ft | 417 kts | 77° |
| 2026-04-30 14:19 | 41.56187 | 20.16507 | 13594 ft | 425 kts | 68° |
| 2026-04-30 14:20 | 41.57393 | 20.20104 | 14237 ft | 426 kts | 59° |
| 2026-04-30 14:20 | 41.58966 | 20.23460 | 14868 ft | 429 kts | 53° |
| 2026-04-30 14:20 | 41.62385 | 20.30105 | 15845 ft | 442 kts | 52° |
| 2026-04-30 14:21 | 41.64130 | 20.33494 | 16393 ft | 448 kts | 52° |
| 2026-04-30 14:21 | 41.65895 | 20.36941 | 16860 ft | 454 kts | 52° |
| 2026-04-30 14:21 | 41.69478 | 20.43991 | 17740 ft | 463 kts | 52° |
| 2026-04-30 14:22 | 41.71285 | 20.47561 | 18473 ft | 463 kts | 52° |
| 2026-04-30 14:22 | 41.74940 | 20.54800 | 19062 ft | 476 kts | 52° |
| 2026-04-30 14:22 | 41.76773 | 20.58435 | 19078 ft | 478 kts | 52° |
| 2026-04-30 14:23 | 41.80489 | 20.65829 | 19077 ft | 479 kts | 52° |
| 2026-04-30 14:23 | 41.84201 | 20.73223 | 18929 ft | 478 kts | 53° |
| 2026-04-30 14:24 | 41.87882 | 20.80579 | 17448 ft | 470 kts | 53° |
| 2026-04-30 14:24 | 41.89682 | 20.84193 | 16751 ft | 463 kts | 53° |
| 2026-04-30 14:25 | 41.93180 | 20.91213 | 15560 ft | 442 kts | 53° |
| 2026-04-30 14:25 | 41.96424 | 20.97741 | 14101 ft | 403 kts | 54° |
| 2026-04-30 14:26 | 41.99382 | 21.03707 | 13328 ft | 370 kts | 54° |
| 2026-04-30 14:26 | 42.00782 | 21.06533 | 13008 ft | 360 kts | 54° |
| 2026-04-30 14:26 | 42.03473 | 21.11975 | 12484 ft | 341 kts | 54° |
| 2026-04-30 14:27 | 42.04771 | 21.14600 | 12229 ft | 332 kts | 54° |
| 2026-04-30 14:27 | 42.06030 | 21.17150 | 12033 ft | 322 kts | 53° |
| 2026-04-30 14:27 | 42.07232 | 21.19589 | 11875 ft | 310 kts | 53° |
| 2026-04-30 14:28 | 42.09535 | 21.24268 | 11576 ft | 288 kts | 53° |
| 2026-04-30 14:28 | 42.10626 | 21.26485 | 11476 ft | 276 kts | 53° |
| 2026-04-30 14:28 | 42.11660 | 21.28586 | 11376 ft | 265 kts | 54° |
| 2026-04-30 14:28 | 42.12736 | 21.30511 | 11252 ft | 253 kts | 36° |
| 2026-04-30 14:29 | 42.15914 | 21.31551 | 10742 ft | 246 kts | 342° |
| 2026-04-30 14:29 | 42.19201 | 21.29825 | 9799 ft | 256 kts | 338° |
| 2026-04-30 14:30 | 42.24155 | 21.27200 | 8787 ft | 250 kts | 339° |
| 2026-04-30 14:31 | 42.27309 | 21.25461 | 8219 ft | 243 kts | 331° |
| 2026-04-30 14:31 | 42.29781 | 21.22370 | 7573 ft | 243 kts | 314° |
| 2026-04-30 14:31 | 42.30881 | 21.20668 | 7239 ft | 242 kts | 314° |
| 2026-04-30 14:32 | 42.33078 | 21.17272 | 6580 ft | 239 kts | 314° |
| 2026-04-30 14:32 | 42.34177 | 21.15584 | 6244 ft | 239 kts | 315° |
| 2026-04-30 14:32 | 42.35261 | 21.13923 | 5906 ft | 238 kts | 315° |
| 2026-04-30 14:33 | 42.36358 | 21.12242 | 5581 ft | 236 kts | 314° |
| 2026-04-30 14:33 | 42.38448 | 21.09037 | 5246 ft | 219 kts | 314° |
| 2026-04-30 14:33 | 42.39442 | 21.07511 | 5085 ft | 212 kts | 314° |
| 2026-04-30 14:34 | 42.40389 | 21.06057 | 4927 ft | 204 kts | 315° |
| 2026-04-30 14:34 | 42.41493 | 21.04948 | 4735 ft | 192 kts | 348° |
| 2026-04-30 14:34 | 42.42783 | 21.04746 | 4515 ft | 187 kts | 0° |
| 2026-04-30 14:34 | 42.44083 | 21.04738 | 4242 ft | 186 kts | 2° |
| 2026-04-30 14:35 | 42.46687 | 21.04666 | 3834 ft | 183 kts | 358° |
| 2026-04-30 14:35 | 42.47927 | 21.04542 | 3667 ft | 177 kts | 358° |
| 2026-04-30 14:35 | 42.49126 | 21.04414 | 3358 ft | 170 kts | 358° |
| 2026-04-30 14:36 | 42.50263 | 21.04295 | 3106 ft | 157 kts | 358° |
| 2026-04-30 14:36 | 42.51312 | 21.04190 | 2839 ft | 144 kts | 357° |
| 2026-04-30 14:36 | 42.52263 | 21.04096 | 2606 ft | 131 kts | 356° |
| 2026-04-30 14:36 | 42.53170 | 21.04003 | 2417 ft | 129 kts | 358° |
| 2026-04-30 14:37 | 42.54063 | 21.03912 | 2222 ft | 129 kts | 358° |
| 2026-04-30 14:37 | 42.54971 | 21.03819 | 2019 ft | 131 kts | 357° |
| 2026-04-30 14:37 | 42.55876 | 21.03730 | 1831 ft | 131 kts | 356° |
| 2026-04-30 14:37 | 42.56756 | 21.03637 | 1785 ft | 118 kts | 356° |
| 2026-04-30 14:38 | 42.57436 | 21.03573 | 1781 ft | 74 kts | 356° |
| 2026-04-30 14:38 | 42.57787 | 21.03527 | 1784 ft | 30 kts | 338° |
| 2026-04-30 14:38 | 42.57865 | 21.03466 | 1786 ft | 0 kts | 327° |
| 2026-04-30 14:38 | 42.57898 | 21.03437 | 1787 ft | 11 kts | 327° |
| 2026-04-30 14:39 | 42.57966 | 21.03376 | 1788 ft | 11 kts | 324° |
| 2026-04-30 14:39 | 42.58000 | 21.03288 | 1790 ft | 12 kts | 226° |
| 2026-04-30 14:39 | 42.57903 | 21.03280 | 1790 ft | 15 kts | 176° |
| 2026-04-30 14:40 | 42.57623 | 21.03305 | 1786 ft | 11 kts | 194° |
| 2026-04-30 14:40 | 42.57587 | 21.03236 | 1787 ft | 9 kts | 258° |
| 2026-04-30 14:40 | 42.57558 | 21.03187 | 1787 ft | 6 kts | 211° |
| 2026-04-30 14:40 | 42.57546 | 21.03125 | 1786 ft | 2 kts | 267° |
| 2026-04-30 14:41 | 42.57546 | 21.03124 | 1786 ft | 0 kts | 267° |